Time;durP1;ratioP1;P1;durP2;ratioP2;P2;SDS_P1;SDS_P2;PMS_P1;PMS_P2;Temp;Humidity;BMP_temperature;BMP_pressure;BME280_temperature;BME280_humidity;BME280_pressure;Samples;Min_cycle;Max_cycle;Signal;HPM_P1;HPM_P2
2022/05/25 00:00:09;;;;;;;9.70;7.88;;;;;;;9.07;96.48;101230.09;5093378;28;20063;-83
2022/05/25 00:02:35;;;;;;;10.93;8.07;;;;;;;8.79;96.14;101191.97;5093385;28;20116;-82
2022/05/25 00:05:08;;;;;;;10.02;7.85;;;;;;;8.84;96.26;101209.75;5093474;28;20106;-86
2022/05/25 00:07:33;;;;;;;9.20;7.50;;;;;;;8.86;96.46;101216.53;5093471;28;20020;-87
2022/05/25 00:09:58;;;;;;;12.27;8.52;;;;;;;9.00;96.34;101251.06;5093218;28;20127;-83
2022/05/25 00:12:24;;;;;;;13.15;7.95;;;;;;;8.90;96.56;101237.81;5093467;28;20436;-83
2022/05/25 00:14:49;;;;;;;13.38;8.00;;;;;;;8.96;96.94;101245.25;5093223;28;20539;-84
2022/05/25 00:17:15;;;;;;;9.45;7.57;;;;;;;8.76;96.75;101225.63;5093018;28;20028;-83
2022/05/25 00:22:24;;;;;;;10.52;8.27;;;;;;;8.82;96.91;101219.31;5093378;28;20035;-83
2022/05/25 00:24:50;;;;;;;13.38;8.43;;;;;;;8.79;96.72;101220.31;5093278;28;20059;-83
2022/05/25 00:27:17;;;;;;;10.80;8.73;;;;;;;8.66;96.89;101206.38;5092977;28;20024;-83
2022/05/25 00:29:43;;;;;;;11.45;8.90;;;;;;;8.84;97.35;101238.09;5093012;28;20034;-83
2022/05/25 00:32:09;;;;;;;11.77;9.18;;;;;;;8.56;97.11;101203.41;5093024;28;20020;-83
2022/05/25 00:34:34;;;;;;;10.60;8.55;;;;;;;8.86;97.03;101260.31;5092975;28;20073;-83
2022/05/25 00:36:59;;;;;;;10.70;8.73;;;;;;;8.56;96.73;101223.19;5093152;28;20027;-84
2022/05/25 00:39:27;;;;;;;14.50;9.18;;;;;;;8.81;96.78;101257.13;5092889;28;20028;-83
2022/05/25 00:41:52;;;;;;;12.75;9.10;;;;;;;8.72;97.12;101254.16;5092881;28;20099;-83
2022/05/25 00:44:21;;;;;;;11.40;9.20;;;;;;;8.58;97.26;101229.91;5092880;28;20042;-87
2022/05/25 00:46:47;;;;;;;12.25;9.20;;;;;;;8.47;97.50;101214.16;5092829;28;20024;-82
2022/05/25 00:49:39;;;;;;;14.20;9.73;;;;;;;8.69;97.78;101257.72;5092614;28;20106;-83
2022/05/25 00:52:06;;;;;;;;;;;;;;;8.68;96.17;101257.78;5090102;28;20088;-84
2022/05/25 00:54:35;;;;;;;13.63;9.18;;;;;;;8.29;97.13;101213.25;5092744;28;19919;-88
2022/05/25 00:57:06;;;;;;;11.77;9.85;;;;;;;8.56;97.44;101265.19;5092643;28;20030;-83
2022/05/25 00:59:47;;;;;;;14.77;10.13;;;;;;;8.36;97.72;101234.44;5095121;28;20483;-88
2022/05/25 01:02:12;;;;;;;13.70;9.65;;;;;;;8.49;97.49;101270.69;5096838;28;20051;-84
2022/05/25 01:04:38;;;;;;;13.45;10.60;;;;;;;8.46;97.76;101266.53;5096900;28;20498;-84
2022/05/25 01:07:20;;;;;;;13.32;10.45;;;;;;;8.21;97.83;101240.25;5097014;28;20035;-83
2022/05/25 01:10:00;;;;;;;14.95;10.05;;;;;;;8.44;98.11;101275.22;5096574;28;20040;-83
2022/05/25 01:12:37;;;;;;;14.07;10.73;;;;;;;8.42;98.33;101279.59;5096770;28;20032;-86
2022/05/25 01:15:21;;;;;;;13.52;10.60;;;;;;;8.24;98.39;101251.22;5096010;28;20066;-87
2022/05/25 01:18:00;;;;;;;13.85;10.98;;;;;;;8.34;98.12;101270.50;5096343;28;20020;-82
2022/05/25 01:20:36;;;;;;;15.35;11.65;;;;;;;8.35;98.58;101276.47;5096676;28;20032;-83
2022/05/25 01:23:19;;;;;;;14.50;11.43;;;;;;;8.33;98.51;101281.66;5096510;28;20137;-83
2022/05/25 01:26:12;;;;;;;15.82;11.77;;;;;;;8.29;98.55;101280.16;5096608;28;20027;-82
2022/05/25 01:28:47;;;;;;;14.73;11.52;;;;;;;8.25;98.76;101281.19;5096609;28;20107;-82
2022/05/25 01:31:19;;;;;;;15.70;11.43;;;;;;;8.26;98.58;101279.47;5096519;28;20028;-81
2022/05/25 01:33:54;;;;;;;18.88;12.63;;;;;;;8.26;99.24;101284.63;5096358;28;20015;-83
2022/05/25 01:36:39;;;;;;;17.08;12.50;;;;;;;8.22;99.40;101278.75;5096345;28;20479;-87
2022/05/25 01:39:08;;;;;;;16.67;13.20;;;;;;;8.20;99.28;101284.88;5096494;28;20131;-83
2022/05/25 01:41:48;;;;;;;15.20;12.57;;;;;;;7.97;99.32;101253.34;5096493;28;20024;-84
2022/05/25 01:44:22;;;;;;;15.93;12.55;;;;;;;7.95;99.63;101247.41;5096028;28;20047;-88
2022/05/25 01:46:56;;;;;;;17.85;13.52;;;;;;;8.12;99.93;101281.81;5078155;28;20024;-86
2022/05/25 01:49:33;;;;;;;17.67;13.75;;;;;;;8.09;100.00;101277.66;5078170;28;20024;-83
2022/05/25 01:52:06;;;;;;;16.52;13.80;;;;;;;7.91;100.00;101245.88;5096296;28;20430;-88
2022/05/25 01:54:34;;;;;;;19.10;14.25;;;;;;;7.73;100.00;101214.13;5095961;28;20107;-83
2022/05/25 01:57:08;;;;;;;18.77;14.90;;;;;;;8.18;100.00;101292.69;5095878;28;20024;-85
2022/05/25 01:59:33;;;;;;;17.63;14.10;;;;;;;8.18;100.00;101289.28;5095667;28;20028;-83
2022/05/25 02:04:47;;;;;;;16.85;14.35;;;;;;;8.14;100.00;101292.88;5096150;28;20123;-83
2022/05/25 02:07:31;;;;;;;18.30;15.15;;;;;;;7.83;100.00;101252.28;5095697;28;20035;-85
2022/05/25 02:10:16;;;;;;;20.23;15.55;;;;;;;7.87;100.00;101254.66;5095700;28;20040;-85
2022/05/25 02:13:03;;;;;;;19.08;15.10;;;;;;;7.81;100.00;101249.78;5077066;28;20043;-83
2022/05/25 02:15:42;;;;;;;18.55;15.43;;;;;;;8.07;100.00;101297.47;5095565;28;20027;-84
2022/05/25 02:18:22;;;;;;;19.95;16.15;;;;;;;8.03;100.00;101298.50;5077205;28;20024;-86
2022/05/25 02:21:00;;;;;;;19.35;14.85;;;;;;;7.47;100.00;101209.28;5077082;28;20391;-84
2022/05/25 02:23:31;;;;;;;18.65;15.13;;;;;;;8.02;100.00;101300.25;5077548;28;20024;-88
2022/05/25 02:26:08;;;;;;;18.42;15.20;;;;;;;7.72;100.00;101247.63;5095515;28;20020;-88
2022/05/25 02:28:39;;;;;;;20.65;15.73;;;;;;;7.73;100.00;101249.28;5095297;28;20035;-87
2022/05/25 02:31:08;;;;;;;18.67;15.60;;;;;;;7.75;100.00;101258.59;5095389;28;20074;-85
2022/05/25 02:33:39;;;;;;;16.65;14.88;;;;;;;7.98;100.00;101303.88;5095235;28;20024;-84
2022/05/25 02:36:06;;;;;;;19.80;15.15;;;;;;;7.69;100.00;101255.47;5095260;28;20524;-84
2022/05/25 02:38:36;;;;;;;19.98;15.05;;;;;;;7.73;100.00;101270.69;5095147;28;20115;-86
2022/05/25 02:41:08;;;;;;;18.05;14.73;;;;;;;7.69;100.00;101270.88;5094923;28;20059;-84
2022/05/25 02:43:38;;;;;;;21.13;15.85;;;;;;;7.95;100.00;101313.44;5095054;28;20053;-85
2022/05/25 02:46:06;;;;;;;23.43;15.83;;;;;;;7.58;100.00;101262.81;5095041;28;20059;-83
2022/05/25 02:48:38;;;;;;;18.48;14.73;;;;;;;7.75;100.00;101292.00;5094893;28;20016;-88
2022/05/25 02:51:03;;;;;;;17.25;14.85;;;;;;;7.84;100.00;101305.34;5094872;28;20035;-87
2022/05/25 02:53:29;;;;;;;17.25;15.15;;;;;;;7.72;100.00;101286.16;5095015;28;20024;-82
2022/05/25 02:55:54;;;;;;;20.33;15.38;;;;;;;7.76;100.00;101293.66;5094917;28;20391;-83
2022/05/25 02:58:19;;;;;;;21.15;15.30;;;;;;;7.89;100.00;101317.13;5094798;28;20451;-87
2022/05/25 03:00:45;;;;;;;19.20;14.65;;;;;;;7.86;100.00;101317.25;5094534;28;20029;-87
2022/05/25 03:03:14;;;;;;;22.85;15.68;;;;;;;7.36;100.00;101229.47;5094049;28;20040;-86
2022/05/25 03:05:41;;;;;;;19.48;14.25;;;;;;;7.94;100.00;101328.03;5076349;28;20024;-86
2022/05/25 03:08:27;;;;;;;16.50;14.18;;;;;;;7.96;100.00;101326.25;5094560;28;20031;-83
2022/05/25 03:10:53;;;;;;;19.95;14.13;;;;;;;7.11;100.00;101180.91;5093974;28;20055;-89
2022/05/25 03:13:29;;;;;;;19.73;14.68;;;;;;;7.96;100.00;101331.41;5094297;28;20020;-83
2022/05/25 03:16:08;;;;;;;18.15;13.65;;;;;;;7.17;100.00;101202.00;5094558;28;20024;-88
2022/05/25 03:18:34;;;;;;;15.82;13.43;;;;;;;7.97;100.00;101327.91;5094171;28;20055;-87
2022/05/25 03:21:00;;;;;;;17.52;12.65;;;;;;;7.97;100.00;101343.34;5093858;28;20057;-83
2022/05/25 03:23:25;;;;;;;18.42;13.35;;;;;;;7.48;100.00;101257.25;5075919;28;20024;-85
2022/05/25 03:25:50;;;;;;;17.58;12.25;;;;;;;7.82;100.00;101309.75;5094149;28;20360;-85
2022/05/25 03:28:16;;;;;;;15.75;12.32;;;;;;;7.88;100.00;101310.31;5094224;28;20028;-87
2022/05/25 03:30:44;;;;;;;17.13;12.23;;;;;;;7.88;100.00;101312.06;5076358;28;20068;-87
2022/05/25 03:33:09;;;;;;;15.70;11.43;;;;;;;7.72;100.00;101291.31;5094195;28;20048;-86
2022/05/25 03:35:38;;;;;;;18.73;11.88;;;;;;;7.99;100.00;101338.13;5093101;28;20111;-82
2022/05/25 03:38:04;;;;;;;15.35;11.65;;;;;;;7.78;100.00;101303.91;5093703;28;20020;-82
2022/05/25 03:40:36;;;;;;;14.32;10.80;;;;;;;8.00;100.00;101348.34;5093774;28;20032;-83
2022/05/25 03:43:01;;;;;;;14.05;11.05;;;;;;;7.72;100.00;101299.84;5094034;28;20034;-87
2022/05/25 03:45:34;;;;;;;16.58;11.38;;;;;;;7.84;100.00;101325.94;5094106;28;20099;-85
2022/05/25 03:47:59;;;;;;;17.58;10.73;;;;;;;7.62;100.00;101293.44;5093813;28;20376;-87
2022/05/25 03:50:25;;;;;;;15.88;11.20;;;;;;;8.02;100.00;101354.25;5093601;28;20020;-86
2022/05/25 03:52:50;;;;;;;14.98;11.02;;;;;;;7.95;100.00;101344.28;5093802;28;20414;-88
2022/05/25 03:55:16;;;;;;;16.88;11.35;;;;;;;8.04;100.00;101359.31;5093532;28;20036;-88
2022/05/25 03:57:42;;;;;;;12.48;10.13;;;;;;;7.68;100.00;101298.34;5093610;28;20031;-87
2022/05/25 04:00:09;;;;;;;15.60;11.15;;;;;;;8.06;100.00;101362.66;5093732;28;20035;-83
2022/05/25 04:02:34;;;;;;;15.82;10.18;;;;;;;8.10;100.00;101361.63;5093415;28;20040;-84
2022/05/25 04:05:12;;;;;;;14.52;10.68;;;;;;;8.02;100.00;101343.13;5093268;28;20047;-83
2022/05/25 04:07:48;;;;;;;15.00;10.30;;;;;;;8.06;100.00;101349.78;5093551;28;20034;-87
2022/05/25 04:10:16;;;;;;;15.07;10.25;;;;;;;8.03;100.00;101331.94;5093140;28;20486;-87
2022/05/25 04:12:43;;;;;;;15.73;9.77;;;;;;;8.03;100.00;101327.63;5093256;28;20089;-88
2022/05/25 04:15:12;;;;;;;13.02;9.60;;;;;;;8.30;100.00;101369.31;5093444;28;20030;-83
2022/05/25 04:17:38;;;;;;;14.38;9.45;;;;;;;8.35;100.00;101374.25;5093288;28;20038;-84
2022/05/25 04:20:04;;;;;;;14.57;9.32;;;;;;;8.06;100.00;101318.94;5092864;28;20103;-86
2022/05/25 04:22:32;;;;;;;13.82;9.57;;;;;;;8.45;100.00;101372.94;5093114;28;20469;-84
2022/05/25 04:24:59;;;;;;;13.70;8.82;;;;;;;8.26;100.00;101336.91;5093096;28;20061;-87
2022/05/25 04:27:27;;;;;;;13.75;8.52;;;;;;;8.49;100.00;101364.19;5093125;28;20036;-84
2022/05/25 04:29:53;;;;;;;13.55;8.10;;;;;;;8.17;99.56;101292.75;5092123;28;20036;-85
2022/05/25 04:32:35;;;;;;;13.43;8.23;;;;;;;8.31;99.08;101316.94;5093366;28;20383;-87
2022/05/25 04:35:00;;;;;;;11.32;8.50;;;;;;;8.20;98.73;101306.31;5092597;28;20031;-84
2022/05/25 04:40:11;;;;;;;12.55;7.65;;;;;;;9.03;98.21;101377.13;5093305;28;20050;-88
2022/05/25 04:42:37;;;;;;;11.35;7.75;;;;;;;9.09;97.41;101374.28;5093440;28;20020;-87
2022/05/25 04:45:03;;;;;;;11.38;7.22;;;;;;;9.09;97.22;101384.56;5093283;28;20085;-84
2022/05/25 04:47:32;;;;;;;12.63;7.10;;;;;;;9.12;97.24;101384.41;5093111;28;20111;-85
2022/05/25 04:50:00;;;;;;;12.75;7.78;;;;;;;8.93;96.86;101348.41;5092867;28;20475;-85
2022/05/25 04:52:26;;;;;;;15.73;7.93;;;;;;;8.79;96.84;101325.88;5092983;28;20026;-86
2022/05/25 04:54:51;;;;;;;12.73;7.97;;;;;;;9.19;97.08;101385.81;5092996;28;20034;-83
2022/05/25 04:57:19;;;;;;;12.93;8.25;;;;;;;9.27;96.92;101385.44;5093189;28;20082;-83
2022/05/25 04:59:52;;;;;;;11.27;8.10;;;;;;;8.97;96.64;101336.22;5093433;28;20067;-89
2022/05/25 05:02:20;;;;;;;12.90;8.02;;;;;;;9.34;96.99;101337.81;5092954;28;20032;-85
2022/05/25 05:04:46;;;;;;;13.57;8.20;;;;;;;11.15;90.91;101378.97;5092785;28;20387;-83
2022/05/25 05:07:13;;;;;;;13.10;6.97;;;;;;;13.05;82.35;101395.09;5092676;28;20024;-84
2022/05/25 05:09:41;;;;;;;10.45;6.63;;;;;;;14.50;74.70;101379.31;5092618;28;20056;-83
2022/05/25 05:12:11;;;;;;;9.32;6.10;;;;;;;15.33;70.39;101319.50;5074657;28;20084;-85
2022/05/25 05:14:40;;;;;;;11.77;4.95;;;;;;;16.61;64.63;101379.91;5092519;28;20051;-83
2022/05/25 05:17:07;;;;;;;10.63;5.30;;;;;;;17.32;61.86;101365.47;5091447;28;20028;-85
2022/05/25 05:19:32;;;;;;;11.02;5.05;;;;;;;18.20;57.92;101392.91;5092462;28;20398;-83
2022/05/25 05:21:58;;;;;;;6.97;4.90;;;;;;;18.53;56.41;101391.75;5092683;28;20107;-83
2022/05/25 05:24:25;;;;;;;10.70;4.53;;;;;;;18.53;55.39;101329.81;5074067;28;20078;-86
2022/05/25 05:26:53;;;;;;;12.85;5.25;;;;;;;18.90;53.79;101342.25;5092509;28;20024;-82
2022/05/25 05:29:24;;;;;;;11.02;4.70;;;;;;;19.23;53.73;101335.75;5073229;28;20078;-83
2022/05/25 05:31:56;;;;;;;7.93;4.95;;;;;;;19.79;52.23;101323.63;5086650;28;20081;-82
2022/05/25 05:34:28;;;;;;;8.43;4.80;;;;;;;19.45;51.17;101254.22;5092464;28;20529;-88
2022/05/25 05:37:24;;;;;;;10.82;4.63;;;;;;;19.44;54.07;101209.84;5092364;28;20072;-86
2022/05/25 05:39:54;;;;;;;7.75;4.43;;;;;;;20.11;48.96;101255.84;5092289;28;20024;-86
2022/05/25 05:42:39;;;;;;;9.60;4.70;;;;;;;20.70;50.15;101237.88;5092135;28;20048;-82
2022/05/25 05:45:38;;;;;;;9.95;4.75;;;;;;;21.85;49.29;101364.59;5093916;28;20051;-82
2022/05/25 05:48:26;;;;;;;10.88;4.43;;;;;;;21.43;47.23;101273.38;5033900;28;20044;-89
2022/05/25 05:50:55;;;;;;;7.82;4.55;;;;;;;21.36;45.51;101205.84;5033797;28;20099;-86
2022/05/25 05:53:30;;;;;;;8.13;4.53;;;;;;;21.72;45.99;101251.13;5034320;28;20040;-80
2022/05/25 05:55:57;;;;;;;8.20;4.93;;;;;;;22.62;43.82;101365.38;5033686;28;20104;-80
2022/05/25 05:58:23;;;;;;;11.00;5.07;;;;;;;22.73;43.70;101377.41;5016287;28;20124;-85
2022/05/25 06:00:49;;;;;;;9.02;4.93;;;;;;;22.71;43.08;101376.72;5013586;28;20034;-82
2022/05/25 06:03:15;;;;;;;11.45;5.68;;;;;;;23.06;43.08;101378.25;5013533;28;20045;-85
2022/05/25 06:05:49;;;;;;;9.82;5.10;;;;;;;23.28;41.80;101359.16;5013200;28;20038;-87
2022/05/25 06:08:46;;;;;;;8.27;5.03;;;;;;;23.63;43.13;101378.25;5013461;28;20390;-86
2022/05/25 06:11:19;;;;;;;9.63;5.60;;;;;;;22.24;43.31;101233.41;5005684;28;20144;-85
2022/05/25 06:14:02;;;;;;;9.30;5.88;;;;;;;21.84;45.46;101231.47;5013372;28;20104;-88
2022/05/25 06:19:33;;;;;;;9.68;5.60;;;;;;;22.80;42.46;101334.44;5013820;28;20041;-85
2022/05/25 06:22:33;;;;;;;9.10;5.57;;;;;;;22.25;43.24;101265.78;5013269;28;20469;-83
2022/05/25 06:25:05;;;;;;;9.25;5.60;;;;;;;21.25;44.37;101240.22;5054649;28;20036;-83
2022/05/25 06:27:37;;;;;;;8.85;5.60;;;;;;;21.19;46.53;101375.63;5055040;28;20032;-82
2022/05/25 06:30:08;;;;;;;11.77;5.93;;;;;;;20.06;48.04;101318.41;5054758;28;20029;-85
2022/05/25 06:32:33;;;;;;;;;;;;;;;20.80;48.72;101412.69;5054745;28;20025;-88
2022/05/25 06:34:59;;;;;;;13.93;6.77;;;;;;;19.55;50.38;101374.69;5054721;28;20387;-80
2022/05/25 06:37:27;;;;;;;11.88;7.03;;;;;;;19.29;51.79;101407.69;5053953;28;20781;-80
2022/05/25 06:39:55;;;;;;;11.80;7.03;;;;;;;18.75;52.13;101367.16;5054973;28;20033;-81
2022/05/25 06:42:26;;;;;;;11.60;7.82;;;;;;;18.69;53.32;101386.03;5054847;28;20133;-83
2022/05/25 06:44:52;;;;;;;;;;;;;;;19.64;52.19;101415.78;5055198;28;20143;-82
2022/05/25 06:47:18;;;;;;;13.30;8.93;;;;;;;20.13;51.13;101420.88;5054664;28;20389;-83
2022/05/25 06:49:46;;;;;;;16.48;10.52;;;;;;;19.66;52.21;101390.28;5054666;28;20017;-82
2022/05/25 06:52:13;;;;;;;15.07;9.13;;;;;;;20.48;50.62;101425.47;5054265;28;20033;-84
2022/05/25 06:54:40;;;;;;;12.90;9.10;;;;;;;20.32;49.70;101386.72;5054693;28;20108;-83
2022/05/25 06:57:05;;;;;;;15.95;9.93;;;;;;;19.47;50.40;101362.31;5053760;28;20491;-83
2022/05/25 06:59:33;;;;;;;17.75;12.02;;;;;;;18.82;53.61;101431.09;5054413;28;20029;-83
2022/05/25 07:04:48;;;;;;;18.20;13.00;;;;;;;16.55;57.26;101258.69;5146462;22;20063;-82
2022/05/25 07:07:22;;;;;;;14.77;11.52;;;;;;;17.19;57.50;101383.06;5094308;28;20032;-83
2022/05/25 07:09:48;;;;;;;18.55;13.82;;;;;;;17.33;58.07;101432.38;5094527;28;20024;-81
2022/05/25 07:12:34;;;;;;;16.70;13.63;;;;;;;16.12;59.40;101276.94;5094754;28;20020;-82
2022/05/25 07:14:59;;;;;;;17.13;15.00;;;;;;;16.98;60.20;101452.66;5075921;28;20051;-87
2022/05/25 07:17:25;;;;;;;16.70;14.88;;;;;;;17.39;59.93;101454.53;5094548;28;20028;-81
2022/05/25 07:19:50;;;;;;;21.15;16.05;;;;;;;18.33;56.96;101458.84;5094478;28;20154;-82
2022/05/25 07:22:16;;;;;;;18.88;15.13;;;;;;;18.48;55.89;101414.84;5094229;28;20024;-81
2022/05/25 07:24:41;;;;;;;20.45;15.23;;;;;;;18.71;56.28;101439.88;5055203;28;20117;-81
2022/05/25 07:27:08;;;;;;;17.40;15.60;;;;;;;18.38;56.11;101464.50;5073765;28;20486;-81
2022/05/25 07:29:33;;;;;;;19.05;15.77;;;;;;;17.99;57.09;101466.97;5073741;28;20036;-82
2022/05/25 07:32:02;;;;;;;18.85;16.05;;;;;;;17.38;58.86;101452.88;5075121;22;20051;-81
2022/05/25 07:34:36;;;;;;;16.95;13.50;;;;;;;16.83;60.17;101439.91;5035597;28;20435;-81
2022/05/25 07:37:15;;;;;;;14.90;11.93;;;;;;;16.44;61.70;101454.25;5053904;28;20060;-82
2022/05/25 07:39:49;;;;;;;13.43;11.32;;;;;;;16.29;62.87;101404.13;5053665;28;20041;-81
2022/05/25 07:42:17;;;;;;;13.50;10.20;;;;;;;16.97;62.45;101464.06;5053445;28;20033;-81
2022/05/25 07:44:46;;;;;;;15.05;9.90;;;;;;;17.02;60.55;101464.53;5053806;28;20051;-81
2022/05/25 07:47:13;;;;;;;16.45;10.43;;;;;;;16.76;61.81;101443.94;5053629;28;20032;-81
2022/05/25 07:49:41;;;;;;;16.00;10.80;;;;;;;16.87;61.27;101453.50;5053471;28;20025;-80
2022/05/25 07:52:07;;;;;;;13.73;10.02;;;;;;;16.71;62.07;101446.06;5053514;28;20029;-82
2022/05/25 07:54:32;;;;;;;15.15;10.48;;;;;;;16.58;62.72;101438.34;5053380;28;20079;-82
2022/05/25 07:56:59;;;;;;;16.35;10.93;;;;;;;16.75;62.53;101470.97;5053311;28;20056;-82
2022/05/25 07:59:25;;;;;;;12.25;10.40;;;;;;;16.52;63.03;101444.06;5053131;28;20017;-82
2022/05/25 08:07:26;;;;;;;13.57;10.13;;;;;;;16.47;63.82;101464.44;5053129;28;20090;-81
2022/05/25 08:09:55;;;;;;;15.57;11.38;;;;;;;16.59;63.49;101457.44;5053050;28;20494;-82
2022/05/25 08:12:21;;;;;;;16.50;11.20;;;;;;;16.86;63.96;101481.38;5095273;23;20055;-80
2022/05/25 08:14:47;;;;;;;14.70;10.00;;;;;;;16.84;64.42;101464.19;5093473;28;20060;-81
2022/05/25 08:17:12;;;;;;;12.32;8.60;;;;;;;16.86;63.83;101477.94;5093143;28;20416;-82
2022/05/25 08:19:38;;;;;;;12.13;8.55;;;;;;;16.79;63.11;101474.16;5093067;28;20019;-82
2022/05/25 08:22:05;;;;;;;10.95;8.32;;;;;;;16.76;64.63;101466.59;5093135;28;20055;-82
2022/05/25 08:24:31;;;;;;;11.85;8.32;;;;;;;16.42;63.75;101418.81;5075358;28;20027;-81
2022/05/25 08:26:56;;;;;;;13.40;8.13;;;;;;;16.92;62.61;101482.69;5093359;28;20032;-81
2022/05/25 08:29:25;;;;;;;9.55;7.40;;;;;;;17.01;64.28;101481.97;5093086;28;20035;-84
2022/05/25 08:31:55;;;;;;;12.02;7.75;;;;;;;17.07;63.25;101478.84;5093002;28;20028;-82
2022/05/25 08:34:23;;;;;;;10.63;7.22;;;;;;;16.90;61.94;101448.03;5093211;28;20058;-83
2022/05/25 08:36:49;;;;;;;10.80;7.57;;;;;;;16.58;62.64;101419.28;5092753;28;20082;-82
2022/05/25 08:39:14;;;;;;;11.48;7.07;;;;;;;16.93;63.62;101468.69;5092882;28;20020;-82
2022/05/25 08:41:41;;;;;;;11.70;6.50;;;;;;;17.09;63.70;101471.72;5092857;28;20031;-82
2022/05/25 08:44:07;;;;;;;9.25;6.45;;;;;;;17.08;63.46;101470.06;5092904;28;20024;-82
2022/05/25 08:46:33;;;;;;;8.82;5.68;;;;;;;17.16;62.32;101474.66;5092948;28;20074;-83
2022/05/25 08:49:02;;;;;;;10.15;6.25;;;;;;;17.03;61.46;101429.66;5092849;28;20043;-82
2022/05/25 08:51:28;;;;;;;9.60;5.20;;;;;;;17.10;61.40;101418.56;5092837;28;20020;-82
2022/05/25 08:53:57;;;;;;;9.80;5.30;;;;;;;17.58;61.74;101465.13;5092638;28;20495;-81
2022/05/25 08:56:41;;;;;;;9.63;5.38;;;;;;;17.49;61.58;101429.31;5092759;28;20028;-80
2022/05/25 08:59:22;;;;;;;9.65;4.88;;;;;;;17.66;61.68;101469.72;5074449;28;20028;-83
2022/05/25 09:02:04;;;;;;;7.97;5.20;;;;;;;17.26;60.59;101423.38;5092682;28;20032;-82
2022/05/25 09:04:55;;;;;;;8.20;4.78;;;;;;;17.42;61.41;101462.97;5092938;28;20035;-82
2022/05/25 09:07:57;;;;;;;6.82;4.32;;;;;;;17.56;61.14;101468.81;5092554;28;20028;-83
2022/05/25 09:10:23;;;;;;;9.18;4.97;;;;;;;17.33;59.73;101463.72;5092187;28;20024;-83
2022/05/25 09:12:54;;;;;;;10.55;4.50;;;;;;;17.06;60.09;101460.72;5092592;28;20490;-83
2022/05/25 09:15:23;;;;;;;7.60;4.00;;;;;;;16.91;62.35;101436.66;5092907;28;20108;-83
2022/05/25 09:18:00;;;;;;;4.90;3.03;;;;;;;17.18;59.49;101468.38;5092487;28;20020;-83
2022/05/25 09:20:36;;;;;;;5.88;2.63;;;;;;;17.42;59.49;101476.00;5094570;28;20038;-82
2022/05/25 09:23:02;;;;;;;7.30;2.88;;;;;;;17.60;58.12;101444.97;5096263;28;20028;-82
2022/05/25 09:25:32;;;;;;;5.13;2.58;;;;;;;17.74;56.50;101405.47;5096526;28;20030;-84
2022/05/25 09:28:06;;;;;;;8.65;2.58;;;;;;;18.37;54.89;101467.25;5096557;28;20039;-83
2022/05/25 09:30:36;;;;;;;4.18;2.08;;;;;;;18.74;54.83;101471.00;5062953;28;20101;-82
2022/05/25 09:33:13;;;;;;;3.45;1.70;;;;;;;19.00;51.87;101476.56;5096458;28;20399;-83
2022/05/25 09:35:45;;;;;;;4.05;1.92;;;;;;;18.90;51.95;101462.66;5096293;28;20096;-83
2022/05/25 09:38:32;;;;;;;5.50;2.10;;;;;;;19.10;51.84;101474.78;5096274;28;20527;-82
2022/05/25 09:41:04;;;;;;;5.95;1.90;;;;;;;18.97;51.09;101474.19;5096081;28;20037;-83
2022/05/25 09:43:31;;;;;;;4.00;1.85;;;;;;;18.91;50.83;101478.22;5096232;28;20081;-83
2022/05/25 09:46:03;;;;;;;4.05;1.90;;;;;;;18.70;49.67;101474.03;5077871;28;20417;-82
2022/05/25 09:48:34;;;;;;;3.80;1.70;;;;;;;18.85;49.37;101483.97;5096270;28;20050;-85
2022/05/25 09:51:28;;;;;;;4.55;1.50;;;;;;;18.98;47.93;101491.59;5095682;28;20056;-83
2022/05/25 09:54:28;;;;;;;3.35;1.80;;;;;;;18.92;49.05;101492.94;5095859;28;20396;-84
2022/05/25 09:57:25;;;;;;;4.28;2.00;;;;;;;18.80;48.94;101446.91;5095796;28;20020;-82
2022/05/25 10:00:02;;;;;;;4.88;2.40;;;;;;;19.01;49.71;101465.13;5096019;28;20386;-88
2022/05/25 10:03:02;;;;;;;4.43;2.60;;;;;;;19.14;48.90;101496.28;5096013;28;20039;-84
2022/05/25 10:05:33;;;;;;;5.75;3.10;;;;;;;18.73;49.12;101482.44;5096107;28;20027;-83
2022/05/25 10:08:15;;;;;;;6.35;3.50;;;;;;;18.67;50.09;101503.06;5095568;28;20024;-83
2022/05/25 10:10:50;;;;;;;;;;;;;;;18.79;49.55;101502.84;5095687;28;20094;-84
2022/05/25 10:13:20;;;;;;;5.95;3.50;;;;;;;18.63;48.92;101460.63;5077374;28;19916;-83
2022/05/25 10:15:51;;;;;;;4.90;3.40;;;;;;;18.79;49.26;101492.38;5095971;28;20043;-83
2022/05/25 10:18:32;;;;;;;5.93;3.42;;;;;;;18.94;50.08;101498.03;5095713;28;20059;-84
2022/05/25 10:21:23;;;;;;;5.28;3.30;;;;;;;18.97;50.05;101458.50;5095505;28;20024;-87
2022/05/25 10:24:20;;;;;;;4.88;3.03;;;;;;;18.52;48.89;101317.69;5095002;28;20055;-86
2022/05/25 10:27:28;;;;;;;6.45;3.15;;;;;;;20.12;48.83;101492.66;5096253;28;20028;-82
2022/05/25 10:36:48;;;;;;;4.15;2.10;;;;;;;19.52;45.47;101481.56;5095453;28;20097;-90
2022/05/25 10:39:31;;;;;;;4.95;2.33;;;;;;;19.46;46.54;101472.44;4993092;28;20034;-89
2022/05/25 10:42:26;;;;;;;7.70;1.88;;;;;;;19.49;47.33;101473.03;4993671;28;20206;-89
2022/05/25 10:45:08;;;;;;;13.93;1.70;;;;;;;19.62;45.71;101470.13;4993528;28;20042;-82
2022/05/25 10:47:49;;;;;;;7.70;1.27;;;;;;;19.76;45.05;101472.34;4993583;28;20038;-81
2022/05/25 10:50:39;;;;;;;2.95;1.08;;;;;;;19.91;44.29;101471.88;4992651;28;20038;-85
2022/05/25 10:53:09;;;;;;;7.50;1.10;;;;;;;19.94;44.59;101445.38;4994012;28;20118;-82
2022/05/25 10:55:49;;;;;;;3.30;1.10;;;;;;;20.40;45.15;101477.81;4993120;28;20045;-84
2022/05/25 10:58:19;;;;;;;11.10;1.98;;;;;;;20.49;43.91;101466.47;4993092;28;20107;-82
2022/05/25 11:00:58;;;;;;;4.30;1.25;;;;;;;20.04;43.43;101439.13;4993102;28;20038;-83
2022/05/25 11:03:54;;;;;;;10.27;1.60;;;;;;;20.17;43.35;101467.69;4992866;28;20038;-85
2022/05/25 11:07:03;;;;;;;2.67;1.00;;;;;;;20.24;44.71;101460.88;4993006;28;20026;-86
2022/05/25 11:10:10;;;;;;;5.57;1.35;;;;;;;20.65;45.39;101461.44;4992859;28;20473;-84
2022/05/25 11:12:55;;;;;;;2.25;1.10;;;;;;;20.75;43.65;101458.75;4990125;28;20100;-81
2022/05/25 11:15:48;;;;;;;4.30;0.90;;;;;;;20.88;43.35;101464.47;5003250;28;20418;-85
2022/05/25 11:18:32;;;;;;;4.32;1.30;;;;;;;20.69;42.46;101433.91;5074189;28;20016;-84
2022/05/25 11:21:29;;;;;;;2.95;1.08;;;;;;;20.89;44.76;101461.69;5073840;28;20056;-86
2022/05/25 11:24:19;;;;;;;3.30;1.02;;;;;;;20.84;45.14;101455.22;5072465;28;20021;-92
2022/05/25 11:27:08;;;;;;;2.88;1.02;;;;;;;20.99;46.15;101450.28;5073926;28;20029;-84
2022/05/25 11:30:01;;;;;;;5.20;1.08;;;;;;;21.09;43.51;101401.16;5055049;28;20033;-85
2022/05/25 11:32:52;;;;;;;4.40;1.17;;;;;;;21.25;42.33;101447.75;5089244;28;20036;-85
2022/05/25 11:35:44;;;;;;;4.32;1.30;;;;;;;21.23;44.18;101453.13;5080343;23;20109;-84
2022/05/25 11:38:47;;;;;;;4.43;0.90;;;;;;;21.34;41.92;101452.13;5069079;28;20044;-81
2022/05/25 11:41:18;;;;;;;2.92;0.98;;;;;;;21.42;41.89;101452.19;5078580;28;20123;-81
2022/05/25 11:44:02;;;;;;;;;;;;;;;21.59;40.23;101461.84;5093290;28;20119;-82
2022/05/25 11:46:30;;;;;;;5.18;1.00;;;;;;;21.04;40.04;101453.28;5093290;28;19912;-84
2022/05/25 11:49:15;;;;;;;4.70;1.00;;;;;;;20.79;41.29;101458.28;5093324;28;20028;-84
2022/05/25 11:52:01;;;;;;;3.47;1.00;;;;;;;21.08;41.86;101458.09;5093382;28;20367;-81
2022/05/25 11:54:41;;;;;;;3.38;1.17;;;;;;;20.55;42.16;101416.00;5093050;28;20065;-81
2022/05/25 11:57:44;;;;;;;3.67;1.08;;;;;;;20.55;43.88;101455.38;5093350;28;20050;-84
2022/05/25 12:00:46;;;;;;;4.53;1.10;;;;;;;20.21;44.24;101463.78;5093363;28;20043;-90
2022/05/25 12:03:20;;;;;;;3.08;1.02;;;;;;;20.02;43.79;101466.47;5093083;28;20179;-87
2022/05/25 12:06:04;;;;;;;3.55;0.98;;;;;;;19.79;42.86;101467.78;5075190;28;20485;-85
2022/05/25 12:08:53;;;;;;;6.03;1.08;;;;;;;19.44;45.69;101408.91;5074863;28;20096;-89
2022/05/25 12:11:48;;;;;;;2.20;0.80;;;;;;;20.10;44.15;101456.09;5010624;28;20098;-90
2022/05/25 12:15:09;;;;;;;3.95;0.90;;;;;;;20.47;43.87;101458.75;5011216;28;20436;-84